Suzuka, Japan
Current Conditions -  °F | °C
As of 9:30 PM on Friday 28 Nov 2014 (Local Time) from RJGG Reporting Station
Broken Clouds Broken Clouds  
Wind Chill: 15°   Ceiling: 2000
Heat Index: 15°   Visibility: 6mi
Dew Point: 13°   Wind: 6mph
Humidity: 88%   Direction: 350°N
Pressure: 30.12"   Gusts: NA
Location:  34.88°N, 136.58°E
Report Text: RJGG 281230Z 35005KT 9999 FEW015 BKN020 BKN030 15/13 Q1020 NOSIG
Loading
Personal Weather Stations






























Interactive Weather Map New forecast layout! Learn more

10-Day Weather Forecast

Advertisements
Track Severe Weather on mobile